createdAt,value
2019-05-25T00:01:47.784Z,15.54
2019-05-25T00:04:16.883Z,15.47
2019-05-25T00:06:46.020Z,15.42
2019-05-25T00:09:15.182Z,15.40
2019-05-25T00:11:44.457Z,15.40
2019-05-25T00:14:13.582Z,15.38
2019-05-25T00:16:42.772Z,15.36
2019-05-25T00:19:11.923Z,15.33
2019-05-25T00:21:41.066Z,15.30
2019-05-25T00:24:12.571Z,15.26
2019-05-25T00:26:41.126Z,15.21
2019-05-25T00:29:10.276Z,15.17
2019-05-25T00:31:39.425Z,15.14
2019-05-25T00:34:08.571Z,14.62
2019-05-25T00:36:37.720Z,15.06
2019-05-25T00:39:08.023Z,15.03
2019-05-25T00:41:37.231Z,15.00
2019-05-25T00:44:06.355Z,14.97
2019-05-25T00:46:35.478Z,14.96
2019-05-25T00:49:04.757Z,14.94
2019-05-25T00:51:33.964Z,14.90
2019-05-25T00:54:03.155Z,14.86
2019-05-25T00:56:32.276Z,14.81
2019-05-25T00:59:01.415Z,14.79
2019-05-25T01:01:30.563Z,14.77
2019-05-25T01:03:59.707Z,14.76
2019-05-25T01:06:28.849Z,14.72
2019-05-25T01:08:57.994Z,14.69
2019-05-25T01:11:27.137Z,14.66
2019-05-25T01:13:56.312Z,14.64
2019-05-25T01:16:25.459Z,14.60
2019-05-25T01:18:54.591Z,14.58
2019-05-25T01:21:23.747Z,14.56
2019-05-25T01:23:52.885Z,14.54
2019-05-25T01:26:22.032Z,14.50
2019-05-25T01:28:51.190Z,14.46
2019-05-25T01:31:20.364Z,14.44
2019-05-25T01:33:49.481Z,14.42
2019-05-25T01:36:18.631Z,14.38
2019-05-25T01:38:47.772Z,14.35
2019-05-25T01:41:16.907Z,14.30
2019-05-25T01:43:46.067Z,14.26
2019-05-25T01:46:15.184Z,14.20
2019-05-25T01:48:44.337Z,14.11
2019-05-25T01:51:13.501Z,14.05
2019-05-25T01:53:42.628Z,13.99
2019-05-25T01:56:11.770Z,13.97
2019-05-25T01:58:40.934Z,13.93
2019-05-25T02:01:10.069Z,13.88
2019-05-25T02:03:39.212Z,13.80
2019-05-25T02:06:08.379Z,13.72
2019-05-25T02:08:37.559Z,13.66
2019-05-25T02:11:06.703Z,13.61
2019-05-25T02:13:35.861Z,13.56
2019-05-25T02:16:05.210Z,13.49
2019-05-25T02:18:34.351Z,13.42
2019-05-25T02:21:03.484Z,13.35
2019-05-25T02:23:32.594Z,13.30
2019-05-25T02:26:01.803Z,13.26
2019-05-25T02:28:30.984Z,13.23
2019-05-25T02:31:00.177Z,13.24
2019-05-25T02:33:29.293Z,13.20
2019-05-25T02:35:58.440Z,13.14
2019-05-25T02:38:27.557Z,13.06
2019-05-25T02:40:57.272Z,13.03
2019-05-25T02:43:26.401Z,12.99
2019-05-25T02:45:55.582Z,12.95
2019-05-25T02:48:24.729Z,12.91
2019-05-25T02:50:53.887Z,12.86
2019-05-25T02:53:23.040Z,12.82
2019-05-25T02:55:52.184Z,12.79
2019-05-25T02:58:21.335Z,12.75
2019-05-25T03:00:50.470Z,12.70
2019-05-25T03:03:19.640Z,12.67
2019-05-25T03:05:50.486Z,12.67
2019-05-25T03:08:19.667Z,12.68
2019-05-25T03:10:50.055Z,12.70
2019-05-25T03:13:19.842Z,12.69
2019-05-25T03:15:49.112Z,12.68
2019-05-25T03:18:18.284Z,12.67
2019-05-25T03:20:47.422Z,12.65
2019-05-25T03:23:16.576Z,12.64
2019-05-25T03:25:49.654Z,12.64
2019-05-25T03:28:16.618Z,12.63
2019-05-25T03:30:45.763Z,12.60
2019-05-25T03:33:14.914Z,12.59
2019-05-25T03:35:44.134Z,12.57
2019-05-25T03:38:13.303Z,12.56
2019-05-25T03:40:42.456Z,12.56
2019-05-25T03:43:11.580Z,12.55
2019-05-25T03:45:40.723Z,12.55
2019-05-25T03:48:09.841Z,12.54
2019-05-25T03:50:38.959Z,12.56
2019-05-25T03:53:08.090Z,12.57
2019-05-25T03:55:37.217Z,12.58
2019-05-25T03:58:06.355Z,12.61
2019-05-25T04:00:36.908Z,11.00
2019-05-25T04:03:26.743Z,12.58
2019-05-25T04:05:55.905Z,12.57
2019-05-25T04:08:25.035Z,12.53
2019-05-25T04:10:54.208Z,12.56
2019-05-25T04:13:23.374Z,12.59
2019-05-25T04:15:52.563Z,12.64
2019-05-25T04:18:21.721Z,12.68
2019-05-25T04:20:50.803Z,12.73
2019-05-25T04:23:19.983Z,12.78
2019-05-25T04:25:49.131Z,12.83
2019-05-25T04:28:18.352Z,12.87
2019-05-25T04:30:47.557Z,12.89
2019-05-25T04:33:16.700Z,12.92
2019-05-25T04:35:45.839Z,12.94
2019-05-25T04:38:14.997Z,12.98
2019-05-25T04:40:44.125Z,13.00
2019-05-25T04:43:13.279Z,13.05
2019-05-25T04:45:42.409Z,13.08
2019-05-25T04:48:11.539Z,13.09
2019-05-25T04:50:40.658Z,13.13
2019-05-25T04:53:09.802Z,13.17
2019-05-25T04:55:38.918Z,13.25
2019-05-25T04:58:08.113Z,13.25
2019-05-25T05:00:37.269Z,13.27
2019-05-25T05:03:06.402Z,13.29
2019-05-25T05:05:35.613Z,13.34
2019-05-25T05:08:04.789Z,13.34
2019-05-25T05:10:33.968Z,13.35
2019-05-25T05:13:03.115Z,13.36
2019-05-25T05:15:32.277Z,13.36
2019-05-25T05:18:01.419Z,13.39
2019-05-25T05:20:30.555Z,13.41
2019-05-25T05:22:59.737Z,12.98
2019-05-25T05:25:28.975Z,13.44
2019-05-25T05:27:58.101Z,12.58
2019-05-25T05:30:34.064Z,13.54
2019-05-25T05:33:03.543Z,13.56
2019-05-25T05:35:38.590Z,13.59
2019-05-25T05:38:09.082Z,13.60
2019-05-25T05:40:38.683Z,13.59
2019-05-25T05:43:12.149Z,13.58
2019-05-25T05:45:43.341Z,13.57
2019-05-25T05:48:13.750Z,13.61
2019-05-25T05:50:43.881Z,13.62
2019-05-25T05:53:13.156Z,13.61
2019-05-25T05:55:42.538Z,13.63
2019-05-25T05:58:11.930Z,13.66
2019-05-25T06:00:41.189Z,13.72
2019-05-25T06:03:10.450Z,13.77
2019-05-25T06:05:39.591Z,13.83
2019-05-25T06:08:08.724Z,13.88
2019-05-25T06:10:37.847Z,13.91
2019-05-25T06:13:07.060Z,13.92
2019-05-25T06:15:36.179Z,13.93
2019-05-25T06:18:05.507Z,13.95
2019-05-25T06:20:34.634Z,13.96
2019-05-25T06:23:07.662Z,13.94
2019-05-25T06:25:34.615Z,13.96
2019-05-25T06:28:03.750Z,13.98
2019-05-25T06:30:32.866Z,13.98
2019-05-25T06:33:01.961Z,13.98
2019-05-25T06:35:31.108Z,13.98
2019-05-25T06:38:00.229Z,13.97
2019-05-25T06:40:29.375Z,13.97
2019-05-25T06:42:58.506Z,13.98
2019-05-25T06:45:27.844Z,13.99
2019-05-25T06:47:56.952Z,13.98
2019-05-25T06:50:26.090Z,14.00
2019-05-25T06:52:57.863Z,14.02
2019-05-25T06:55:26.113Z,13.98
2019-05-25T06:57:55.195Z,13.97
2019-05-25T07:00:24.329Z,13.98
2019-05-25T07:02:53.453Z,14.01
2019-05-25T07:05:22.568Z,14.00
2019-05-25T07:07:54.482Z,14.00
2019-05-25T07:10:25.550Z,13.97
2019-05-25T07:12:55.178Z,13.96
2019-05-25T07:15:24.336Z,13.93
2019-05-25T07:17:53.452Z,13.95
2019-05-25T07:20:22.586Z,13.96
2019-05-25T07:22:51.737Z,13.95
2019-05-25T07:25:24.482Z,13.95
2019-05-25T07:27:59.527Z,13.96
2019-05-25T07:30:24.592Z,13.98
2019-05-25T07:32:53.703Z,14.00
2019-05-25T07:35:22.849Z,14.03
2019-05-25T07:37:51.990Z,14.07
2019-05-25T07:40:21.176Z,14.05
2019-05-25T07:42:50.305Z,14.10
2019-05-25T07:45:19.457Z,12.49
2019-05-25T07:47:48.631Z,14.05
2019-05-25T07:50:19.084Z,14.04
2019-05-25T07:52:48.212Z,14.04
2019-05-25T07:55:17.362Z,14.04
2019-05-25T07:57:46.501Z,14.05
2019-05-25T08:00:15.728Z,14.10
2019-05-25T08:02:44.858Z,14.14
2019-05-25T08:05:14.286Z,14.19
2019-05-25T08:07:43.394Z,14.18
2019-05-25T08:10:12.735Z,14.17
2019-05-25T08:12:41.857Z,14.14
2019-05-25T08:15:12.839Z,14.13
2019-05-25T08:17:41.956Z,14.13
2019-05-25T08:20:11.121Z,14.19
2019-05-25T08:22:40.340Z,14.20
2019-05-25T08:25:09.707Z,14.22
2019-05-25T08:27:38.861Z,14.23
2019-05-25T08:30:08.887Z,14.26
2019-05-25T08:32:38.110Z,14.26
2019-05-25T08:35:07.333Z,14.28
2019-05-25T08:37:36.666Z,14.28
2019-05-25T08:40:06.891Z,14.27
2019-05-25T08:42:36.061Z,12.55
2019-05-25T08:45:05.547Z,14.27
2019-05-25T08:47:34.807Z,14.31
2019-05-25T08:50:04.297Z,14.35
2019-05-25T08:52:33.438Z,14.40
2019-05-25T08:55:02.687Z,14.43
2019-05-25T08:57:31.891Z,14.46
2019-05-25T09:00:01.085Z,14.52
2019-05-25T09:02:30.177Z,14.58
2019-05-25T09:04:59.280Z,14.63
2019-05-25T09:07:28.435Z,14.65
2019-05-25T09:09:57.587Z,14.68
2019-05-25T09:12:26.709Z,14.72
2019-05-25T09:14:55.970Z,14.73
2019-05-25T09:17:25.225Z,14.75
2019-05-25T09:19:54.500Z,14.78
2019-05-25T09:22:23.655Z,14.85
2019-05-25T09:24:52.797Z,14.88
2019-05-25T09:27:21.935Z,14.91
2019-05-25T09:29:51.061Z,14.96
2019-05-25T09:32:20.259Z,15.02
2019-05-25T09:34:49.438Z,15.11
2019-05-25T09:37:18.556Z,15.22
2019-05-25T09:39:47.684Z,15.36
2019-05-25T09:42:16.900Z,15.42
2019-05-25T09:44:46.045Z,15.45
2019-05-25T09:47:15.192Z,15.51
2019-05-25T09:49:44.336Z,15.70
2019-05-25T09:52:13.473Z,15.92
2019-05-25T09:54:42.604Z,16.10
2019-05-25T09:57:11.756Z,16.13
2019-05-25T09:59:40.899Z,16.12
2019-05-25T10:02:10.057Z,16.11
2019-05-25T10:04:39.191Z,16.18
2019-05-25T10:07:08.322Z,16.20
2019-05-25T10:09:40.024Z,16.18
2019-05-25T10:12:08.351Z,16.19
2019-05-25T10:14:37.462Z,16.23
2019-05-25T10:17:06.622Z,16.28
2019-05-25T10:19:35.754Z,16.31
2019-05-25T10:22:05.188Z,16.33
2019-05-25T10:24:34.320Z,16.34
2019-05-25T10:27:03.623Z,16.33
2019-05-25T10:29:37.253Z,16.36
2019-05-25T10:32:03.624Z,16.42
2019-05-25T10:34:32.746Z,16.50
2019-05-25T10:37:01.880Z,16.56
2019-05-25T10:39:31.170Z,16.63
2019-05-25T10:42:00.306Z,15.48
2019-05-25T10:44:29.574Z,16.75
2019-05-25T10:47:01.131Z,16.78
2019-05-25T10:49:30.243Z,16.81
2019-05-25T10:51:59.410Z,16.87
2019-05-25T10:54:28.516Z,16.93
2019-05-25T10:56:57.634Z,16.95
2019-05-25T10:59:26.757Z,16.96
2019-05-25T11:01:55.891Z,16.92
2019-05-25T11:04:25.071Z,16.86
2019-05-25T11:06:54.267Z,16.86
2019-05-25T11:09:23.417Z,16.87
2019-05-25T11:11:52.567Z,16.87
2019-05-25T11:14:21.670Z,16.87
2019-05-25T11:16:50.810Z,16.84
2019-05-25T11:19:19.938Z,16.87
2019-05-25T11:21:49.062Z,16.91
2019-05-25T11:24:18.238Z,16.91
2019-05-25T11:26:47.343Z,16.88
2019-05-25T11:29:16.681Z,16.85
2019-05-25T11:31:54.403Z,16.92
2019-05-25T11:34:16.635Z,17.00
2019-05-25T11:36:45.766Z,17.08
2019-05-25T11:39:14.914Z,17.20
2019-05-25T11:41:44.072Z,17.31
2019-05-25T11:44:13.196Z,17.39
2019-05-25T11:46:42.326Z,17.51
2019-05-25T11:49:22.127Z,17.72
2019-05-25T11:51:42.295Z,17.94
2019-05-25T11:54:11.450Z,18.15
2019-05-25T11:56:40.594Z,18.34
2019-05-25T11:59:09.731Z,18.45
2019-05-25T12:01:38.870Z,18.59
2019-05-25T12:04:07.991Z,18.74
2019-05-25T12:06:37.096Z,18.83
2019-05-25T12:09:07.866Z,18.86
2019-05-25T12:11:37.010Z,18.86
2019-05-25T12:14:06.154Z,18.85
2019-05-25T12:16:35.329Z,18.81
2019-05-25T12:19:04.465Z,18.85
2019-05-25T12:21:33.723Z,18.88
2019-05-25T12:24:02.883Z,18.90
2019-05-25T12:26:32.035Z,18.89
2019-05-25T12:29:01.149Z,18.92
2019-05-25T12:31:30.338Z,18.92
2019-05-25T12:33:59.487Z,18.90
2019-05-25T12:36:28.607Z,18.91
2019-05-25T12:38:57.802Z,18.95
2019-05-25T12:41:26.942Z,18.99
2019-05-25T12:43:56.108Z,19.04
2019-05-25T12:46:25.293Z,18.98
2019-05-25T12:48:54.460Z,18.98
2019-05-25T12:51:23.599Z,18.97
2019-05-25T12:53:52.831Z,18.91
2019-05-25T12:56:21.989Z,18.90
2019-05-25T12:58:51.134Z,18.91
2019-05-25T13:01:20.297Z,18.98
2019-05-25T13:03:49.474Z,19.04
2019-05-25T13:06:18.668Z,19.10
2019-05-25T13:08:47.832Z,19.13
2019-05-25T13:11:17.019Z,19.15
2019-05-25T13:13:46.252Z,19.18
2019-05-25T13:16:15.457Z,19.19
2019-05-25T13:18:44.645Z,19.13
2019-05-25T13:21:13.784Z,19.12
2019-05-25T13:23:42.933Z,19.14
2019-05-25T13:26:12.052Z,19.10
2019-05-25T13:28:41.212Z,19.12
2019-05-25T13:31:12.036Z,19.08
2019-05-25T13:33:41.290Z,19.16
2019-05-25T13:36:10.531Z,19.28
2019-05-25T13:38:39.752Z,19.41
2019-05-25T13:41:08.903Z,19.47
2019-05-25T13:43:38.085Z,19.52
2019-05-25T13:46:07.244Z,19.53
2019-05-25T13:48:36.449Z,19.63
2019-05-25T13:51:05.663Z,19.68
2019-05-25T13:53:34.867Z,19.65
2019-05-25T13:56:03.998Z,19.58
2019-05-25T13:58:33.136Z,19.53
2019-05-25T14:01:02.269Z,19.51
2019-05-25T14:03:31.521Z,19.55
2019-05-25T14:06:00.705Z,19.57
2019-05-25T14:08:29.889Z,19.60
2019-05-25T14:10:59.071Z,19.55
2019-05-25T14:13:28.228Z,19.52
2019-05-25T14:16:06.562Z,19.50
2019-05-25T14:18:28.232Z,19.55
2019-05-25T14:20:57.512Z,19.51
2019-05-25T14:23:26.651Z,19.55
2019-05-25T14:25:55.818Z,19.61
2019-05-25T14:28:25.034Z,19.71
2019-05-25T14:30:54.260Z,19.79
2019-05-25T14:33:23.418Z,19.89
2019-05-25T14:35:52.547Z,19.91
2019-05-25T14:38:21.676Z,19.90
2019-05-25T14:40:50.808Z,19.92
2019-05-25T14:43:19.982Z,19.91
2019-05-25T14:45:53.233Z,19.90
2019-05-25T14:48:20.088Z,19.99
2019-05-25T14:50:49.285Z,20.07
2019-05-25T14:53:18.452Z,20.15
2019-05-25T14:55:47.619Z,20.15
2019-05-25T14:58:16.742Z,20.11
2019-05-25T15:00:46.006Z,20.11
2019-05-25T15:03:15.134Z,20.13
2019-05-25T15:05:44.284Z,20.17
2019-05-25T15:08:13.449Z,20.18
2019-05-25T15:10:42.617Z,20.17
2019-05-25T15:13:11.822Z,20.21
2019-05-25T15:15:40.964Z,20.16
2019-05-25T15:18:10.128Z,20.23
2019-05-25T15:20:39.340Z,20.25
2019-05-25T15:23:08.533Z,20.21
2019-05-25T15:25:37.736Z,20.20
2019-05-25T15:28:06.928Z,20.16
2019-05-25T15:30:36.226Z,20.10
2019-05-25T15:33:06.262Z,20.10
2019-05-25T15:35:35.363Z,20.06
2019-05-25T15:38:04.509Z,20.04
2019-05-25T15:40:33.690Z,20.01
2019-05-25T15:43:02.907Z,20.03
2019-05-25T15:45:32.127Z,20.01
2019-05-25T15:48:01.263Z,19.97
2019-05-25T15:50:30.453Z,19.94
2019-05-25T15:52:59.631Z,19.90
2019-05-25T15:55:28.819Z,19.85
2019-05-25T15:57:57.960Z,19.83
2019-05-25T16:00:46.939Z,19.78
2019-05-25T16:03:18.262Z,19.70
2019-05-25T16:05:47.841Z,19.66
2019-05-25T16:08:18.237Z,19.56
2019-05-25T16:10:47.676Z,19.48
2019-05-25T16:13:16.903Z,19.45
2019-05-25T16:15:46.042Z,19.39
2019-05-25T16:18:15.263Z,19.35
2019-05-25T16:20:44.377Z,19.28
2019-05-25T16:23:13.567Z,19.17
2019-05-25T16:25:42.785Z,19.11
2019-05-25T16:28:11.959Z,19.08
2019-05-25T16:30:41.116Z,19.07
2019-05-25T16:33:12.811Z,19.01
2019-05-25T16:35:41.123Z,18.97
2019-05-25T16:38:10.460Z,18.98
2019-05-25T16:40:39.557Z,18.92
2019-05-25T16:43:08.720Z,18.84
2019-05-25T16:45:40.022Z,18.81
2019-05-25T16:48:09.153Z,18.78
2019-05-25T16:50:38.296Z,18.77
2019-05-25T16:53:07.431Z,18.74
2019-05-25T16:55:36.571Z,17.32
2019-05-25T16:58:05.792Z,18.69
2019-05-25T17:00:34.944Z,18.68
2019-05-25T17:03:04.133Z,18.67
2019-05-25T17:05:33.299Z,18.65
2019-05-25T17:08:02.429Z,18.65
2019-05-25T17:10:31.629Z,18.62
2019-05-25T17:13:00.871Z,18.64
2019-05-25T17:15:29.987Z,18.63
2019-05-25T17:17:59.219Z,18.65
2019-05-25T17:20:28.384Z,18.63
2019-05-25T17:22:57.671Z,18.63
2019-05-25T17:25:28.385Z,18.59
2019-05-25T17:27:57.569Z,18.59
2019-05-25T17:30:58.223Z,18.55
2019-05-25T17:33:44.216Z,18.53
2019-05-25T17:35:58.253Z,18.51
2019-05-25T17:38:27.402Z,18.52
2019-05-25T17:40:56.526Z,18.52
2019-05-25T17:43:25.793Z,18.51
2019-05-25T17:45:54.973Z,18.49
2019-05-25T17:48:24.084Z,18.44
2019-05-25T17:50:53.268Z,18.45
2019-05-25T17:53:22.408Z,18.44
2019-05-25T17:55:51.579Z,18.42
2019-05-25T17:58:20.780Z,18.38
2019-05-25T18:00:50.852Z,18.30
2019-05-25T18:03:20.369Z,18.23
2019-05-25T18:05:49.632Z,18.20
2019-05-25T18:08:18.758Z,18.17
2019-05-25T18:10:55.127Z,18.13
2019-05-25T18:13:18.847Z,18.09
2019-05-25T18:15:48.121Z,18.04
2019-05-25T18:18:17.200Z,17.97
2019-05-25T18:20:46.429Z,17.91
2019-05-25T18:23:15.688Z,17.84
2019-05-25T18:25:44.856Z,17.79
2019-05-25T18:28:14.016Z,17.75
2019-05-25T18:30:43.152Z,17.72
2019-05-25T18:33:12.399Z,17.67
2019-05-25T18:35:41.558Z,17.62
2019-05-25T18:38:10.730Z,17.56
2019-05-25T18:40:39.864Z,17.48
2019-05-25T18:43:09.120Z,17.42
2019-05-25T18:45:38.280Z,17.34
2019-05-25T18:48:07.483Z,17.25
2019-05-25T18:50:36.647Z,17.15
2019-05-25T18:53:05.865Z,17.07
2019-05-25T18:55:35.000Z,16.93
2019-05-25T18:58:04.245Z,16.79
2019-05-25T19:00:33.439Z,16.71
2019-05-25T19:03:02.604Z,16.62
2019-05-25T19:05:31.803Z,16.55
2019-05-25T19:08:00.950Z,16.46
2019-05-25T19:10:30.332Z,16.36
2019-05-25T19:12:59.598Z,16.24
2019-05-25T19:15:28.733Z,16.14
2019-05-25T19:17:58.082Z,16.07
2019-05-25T19:20:27.239Z,16.00
2019-05-25T19:22:56.433Z,15.94
2019-05-25T19:25:25.558Z,15.89
2019-05-25T19:27:54.718Z,15.84
2019-05-25T19:30:23.859Z,15.77
2019-05-25T19:32:53.052Z,15.69
2019-05-25T19:35:22.308Z,15.62
2019-05-25T19:37:51.526Z,15.53
2019-05-25T19:40:20.685Z,15.43
2019-05-25T19:42:50.335Z,15.35
2019-05-25T19:45:22.010Z,15.26
2019-05-25T19:47:51.190Z,15.16
2019-05-25T19:50:20.546Z,15.08
2019-05-25T19:52:49.699Z,14.97
2019-05-25T19:55:18.867Z,14.89
2019-05-25T19:57:48.014Z,14.80
2019-05-25T20:00:17.462Z,14.71
2019-05-25T20:02:46.671Z,14.67
2019-05-25T20:05:17.634Z,14.62
2019-05-25T20:07:46.938Z,14.60
2019-05-25T20:10:16.536Z,14.56
2019-05-25T20:12:45.714Z,14.52
2019-05-25T20:15:15.569Z,14.47
2019-05-25T20:17:44.710Z,14.43
2019-05-25T20:20:14.736Z,14.40
2019-05-25T20:22:43.936Z,14.36
2019-05-25T20:25:13.396Z,14.31
2019-05-25T20:27:42.567Z,14.21
2019-05-25T20:30:11.845Z,14.06
2019-05-25T20:32:41.022Z,13.97
2019-05-25T20:35:10.189Z,13.93
2019-05-25T20:37:39.365Z,13.90
2019-05-25T20:40:09.520Z,13.87
2019-05-25T20:42:39.665Z,13.85
2019-05-25T20:45:09.432Z,13.84
2019-05-25T20:47:38.627Z,13.80
2019-05-25T20:50:08.451Z,13.78
2019-05-25T20:52:37.655Z,13.75
2019-05-25T20:55:07.663Z,13.72
2019-05-25T20:57:36.791Z,13.69
2019-05-25T21:00:06.705Z,13.65
2019-05-25T21:02:35.861Z,13.59
2019-05-25T21:05:05.177Z,13.51
2019-05-25T21:07:34.361Z,13.43
2019-05-25T21:10:03.531Z,13.34
2019-05-25T21:12:32.669Z,13.28
2019-05-25T21:15:01.870Z,13.24
2019-05-25T21:17:30.987Z,13.18
2019-05-25T21:20:00.266Z,13.15
2019-05-25T21:22:29.371Z,13.09
2019-05-25T21:25:05.146Z,13.05
2019-05-25T21:27:29.409Z,12.99
2019-05-25T21:29:58.589Z,12.93
2019-05-25T21:32:27.753Z,12.88
2019-05-25T21:34:56.886Z,12.83
2019-05-25T21:37:26.126Z,12.80
2019-05-25T21:39:55.298Z,12.75
2019-05-25T21:42:24.515Z,12.71
2019-05-25T21:44:53.678Z,12.67
2019-05-25T21:47:22.852Z,12.64
2019-05-25T21:49:52.009Z,12.59
2019-05-25T21:52:21.200Z,12.55
2019-05-25T21:54:50.350Z,12.50
2019-05-25T21:57:19.499Z,12.43
2019-05-25T21:59:48.662Z,12.37
2019-05-25T22:02:17.795Z,12.31
2019-05-25T22:04:46.929Z,12.30
2019-05-25T22:07:16.054Z,12.27
2019-05-25T22:09:45.206Z,12.24
2019-05-25T22:12:14.363Z,12.20
2019-05-25T22:14:43.526Z,12.18
2019-05-25T22:17:12.664Z,12.14
2019-05-25T22:19:41.847Z,12.11
2019-05-25T22:22:10.985Z,12.08
2019-05-25T22:24:40.138Z,12.04
2019-05-25T22:27:09.264Z,12.03
2019-05-25T22:29:38.432Z,11.99
2019-05-25T22:32:07.612Z,11.96
2019-05-25T22:34:36.804Z,11.94
2019-05-25T22:37:05.943Z,11.90
2019-05-25T22:39:35.100Z,11.38
2019-05-25T22:42:04.402Z,11.84
2019-05-25T22:44:33.550Z,11.79
2019-05-25T22:47:02.727Z,11.74
2019-05-25T22:49:31.889Z,11.72
2019-05-25T22:52:01.040Z,11.66
2019-05-25T22:54:30.179Z,11.62
2019-05-25T22:56:59.340Z,11.61
2019-05-25T22:59:28.425Z,11.59
2019-05-25T23:01:57.566Z,11.55
2019-05-25T23:04:26.709Z,11.50
2019-05-25T23:06:58.195Z,11.48
2019-05-25T23:09:26.802Z,11.46
2019-05-25T23:11:55.955Z,11.43
2019-05-25T23:14:25.102Z,11.38
2019-05-25T23:16:54.280Z,11.37
2019-05-25T23:19:23.547Z,11.33
2019-05-25T23:21:52.680Z,11.32
2019-05-25T23:24:21.808Z,11.28
2019-05-25T23:26:50.916Z,11.25
2019-05-25T23:29:20.135Z,11.23
2019-05-25T23:31:49.306Z,11.21
2019-05-25T23:34:18.485Z,11.18
2019-05-25T23:36:47.670Z,11.12
2019-05-25T23:39:16.817Z,11.08
2019-05-25T23:41:45.984Z,11.02
2019-05-25T23:44:15.119Z,10.98
2019-05-25T23:46:44.316Z,10.96
2019-05-25T23:49:13.436Z,10.96
2019-05-25T23:51:42.582Z,10.93
2019-05-25T23:54:11.724Z,10.91
2019-05-25T23:56:40.853Z,10.89
2019-05-25T23:59:10.014Z,10.85
